Time;durP1;ratioP1;P1;durP2;ratioP2;P2;SDS_P1;SDS_P2;PMS_P1;PMS_P2;Temp;Humidity;BMP_temperature;BMP_pressure;BME280_temperature;BME280_humidity;BME280_pressure;Samples;Min_cycle;Max_cycle;Signal;HPM_P1;HPM_P2
2022/01/11 00:02:01;;;;;;;33.70;12.75;;;;;;;-2.77;90.45;100214.53;2154728;83;21106;-63
2022/01/11 00:05:03;;;;;;;28.50;9.65;;;;;;;-2.86;90.89;100215.25;2135196;83;20972;-64
2022/01/11 00:08:07;;;;;;;28.75;10.15;;;;;;;-2.93;90.15;100212.14;2144907;83;20996;-64
2022/01/11 00:11:10;;;;;;;30.88;10.18;;;;;;;-2.99;89.68;100212.52;2094438;83;20996;-63
2022/01/11 00:14:11;;;;;;;28.20;9.48;;;;;;;-3.01;89.74;100212.03;2144929;83;21088;-64
2022/01/11 00:17:13;;;;;;;30.75;10.18;;;;;;;-3.02;90.47;100215.00;2144749;83;21087;-64
2022/01/11 00:20:16;;;;;;;30.43;10.03;;;;;;;-3.03;90.56;100218.83;2144865;83;21111;-64
2022/01/11 00:26:19;;;;;;;32.63;11.53;;;;;;;-2.97;91.68;100220.23;2145239;83;21068;-64
2022/01/11 00:29:20;;;;;;;35.03;11.05;;;;;;;-2.89;91.08;100218.62;2154835;83;21050;-63
2022/01/11 00:32:35;;;;;;;31.42;11.12;;;;;;;-2.89;91.21;100216.06;2135013;83;21001;-64
2022/01/11 00:35:29;;;;;;;34.43;11.80;;;;;;;-2.75;91.16;100225.28;2128278;83;20978;-64
2022/01/11 00:38:28;;;;;;;33.83;11.63;;;;;;;-2.71;90.87;100225.77;2110803;83;21053;-63
2022/01/11 00:41:30;;;;;;;30.57;10.85;;;;;;;-2.65;91.15;100232.28;2154630;82;21010;-63
2022/01/11 00:44:31;;;;;;;30.97;10.18;;;;;;;-2.61;91.13;100235.78;2135148;83;21064;-63
2022/01/11 00:47:33;;;;;;;51.40;17.23;;;;;;;-2.61;90.53;100228.06;2154732;83;20979;-63
2022/01/11 00:50:36;;;;;;;38.48;14.18;;;;;;;-2.62;90.94;100232.32;2134920;83;21503;-64
2022/01/11 00:53:37;;;;;;;60.15;19.02;;;;;;;-2.64;91.31;100233.16;2154766;83;20986;-63
2022/01/11 00:56:39;;;;;;;60.37;20.73;;;;;;;-2.61;90.93;100235.34;2134652;83;21119;-63
2022/01/11 00:59:40;;;;;;;90.77;30.52;;;;;;;-2.56;91.08;100245.69;2154299;83;21018;-63
2022/01/11 01:02:42;;;;;;;46.88;15.83;;;;;;;-2.53;91.34;100248.33;2134772;83;21558;-63
2022/01/11 01:05:43;;;;;;;28.55;9.43;;;;;;;-2.53;91.80;100251.30;2154561;83;21005;-63
2022/01/11 01:08:45;;;;;;;26.82;9.60;;;;;;;-2.41;91.82;100241.61;2134761;83;21518;-63
2022/01/11 01:11:47;;;;;;;33.38;11.83;;;;;;;-2.47;91.63;100244.95;2145043;83;20961;-63
2022/01/11 01:14:48;;;;;;;33.23;11.70;;;;;;;-2.49;91.65;100251.36;2154780;83;21501;-63
2022/01/11 01:17:49;;;;;;;35.80;13.80;;;;;;;-2.56;92.46;100246.11;2134848;83;20996;-63
2022/01/11 01:20:51;;;;;;;40.98;16.15;;;;;;;-2.64;92.86;100243.44;2154625;83;20991;-63
2022/01/11 01:23:52;;;;;;;44.25;17.40;;;;;;;-2.80;93.30;100249.61;2135034;83;21004;-64
2022/01/11 01:26:54;;;;;;;50.28;19.70;;;;;;;-2.94;94.36;100252.38;2154499;83;21045;-63
2022/01/11 01:29:55;;;;;;;50.20;19.82;;;;;;;-3.15;95.06;100246.05;2135000;83;21551;-63
2022/01/11 01:32:57;;;;;;;49.25;19.48;;;;;;;-3.35;96.16;100256.36;2154574;83;21002;-63
2022/01/11 01:36:02;;;;;;;53.85;21.12;;;;;;;-3.55;97.51;100262.39;2134693;83;21518;-63
2022/01/11 01:39:01;;;;;;;48.60;19.82;;;;;;;-3.71;97.99;100257.39;2128271;83;21497;-63
2022/01/11 01:42:03;;;;;;;53.35;21.95;;;;;;;-3.88;98.85;100274.59;2133076;83;21075;-63
2022/01/11 01:45:04;;;;;;;57.50;22.03;;;;;;;-4.01;98.67;100270.02;2148260;83;20991;-63
2022/01/11 01:48:07;;;;;;;52.17;19.55;;;;;;;-4.14;98.78;100269.32;2131168;84;21064;-63
2022/01/11 01:51:09;;;;;;;55.43;23.10;;;;;;;-4.26;99.79;100274.63;2148156;83;20971;-62
2022/01/11 01:54:10;;;;;;;56.63;22.50;;;;;;;-4.40;100.00;100274.73;2131563;84;21084;-63
2022/01/11 01:57:12;;;;;;;58.08;22.90;;;;;;;-4.47;100.00;100276.70;2148051;83;21011;-63
2022/01/11 02:00:13;;;;;;;60.80;23.15;;;;;;;-4.58;100.00;100279.88;2131413;84;21583;-63
2022/01/11 02:03:15;;;;;;;58.45;22.73;;;;;;;-4.64;100.00;100281.41;2148052;83;20951;-63
2022/01/11 02:06:17;;;;;;;56.45;22.05;;;;;;;-4.75;100.00;100287.58;2131439;84;21005;-64
2022/01/11 02:09:19;;;;;;;60.43;24.35;;;;;;;-4.88;100.00;100290.24;2147894;83;21015;-63
2022/01/11 02:12:20;;;;;;;57.40;22.93;;;;;;;-5.03;100.00;100293.27;2131367;84;21560;-63
2022/01/11 02:15:21;;;;;;;62.50;24.05;;;;;;;-5.11;100.00;100298.63;2147906;83;21283;-63
2022/01/11 02:18:25;;;;;;;64.40;26.50;;;;;;;-5.14;100.00;100297.23;2131774;84;21588;-63
2022/01/11 02:21:26;;;;;;;62.67;25.10;;;;;;;-5.16;100.00;100300.18;2147973;83;21054;-63
2022/01/11 02:24:32;;;;;;;61.18;25.50;;;;;;;-5.23;100.00;100295.30;2131378;84;21023;-63
2022/01/11 02:27:31;;;;;;;63.90;24.72;;;;;;;-5.30;100.00;100302.36;2119881;83;20948;-62
2022/01/11 02:30:33;;;;;;;64.05;25.65;;;;;;;-5.41;100.00;100304.22;2131525;84;21061;-62
2022/01/11 02:33:35;;;;;;;65.10;24.23;;;;;;;-5.48;100.00;100304.87;2148035;83;20975;-61
2022/01/11 02:36:37;;;;;;;65.27;25.77;;;;;;;-5.53;100.00;100310.69;2131611;84;21532;-61
2022/01/11 02:39:39;;;;;;;66.47;26.40;;;;;;;-5.57;100.00;100313.59;2148343;83;21296;-61
2022/01/11 02:42:40;;;;;;;62.73;24.80;;;;;;;-5.69;100.00;100311.52;2133690;83;21067;-61
2022/01/11 02:45:42;;;;;;;60.98;24.63;;;;;;;-5.85;100.00;100313.20;2155013;83;21022;-61
2022/01/11 02:48:43;;;;;;;62.95;25.35;;;;;;;-5.92;100.00;100316.86;2135122;83;21063;-61
2022/01/11 02:51:45;;;;;;;65.17;25.40;;;;;;;-5.96;100.00;100319.26;2154572;83;21014;-61
2022/01/11 02:54:47;;;;;;;67.30;26.23;;;;;;;-6.05;100.00;100322.86;2135247;83;21027;-61
2022/01/11 02:57:48;;;;;;;62.80;25.92;;;;;;;-6.06;100.00;100324.95;2154834;83;21086;-61
2022/01/11 03:00:50;;;;;;;69.37;27.10;;;;;;;-6.06;100.00;100324.95;2135102;83;21012;-60
2022/01/11 03:03:51;;;;;;;61.63;25.52;;;;;;;-6.06;100.00;100326.23;2154763;83;20991;-61
2022/01/11 03:06:53;;;;;;;65.95;26.55;;;;;;;-6.05;100.00;100325.42;2135047;83;21059;-61
2022/01/11 03:10:02;;;;;;;;;;;;;;;-6.05;100.00;100321.58;2157180;83;21546;-61
2022/01/11 03:12:59;;;;;;;64.97;25.30;;;;;;;-6.17;100.00;100322.09;2110918;83;20517;-61
2022/01/11 03:16:01;;;;;;;64.42;25.65;;;;;;;-6.34;100.00;100326.24;2155118;83;20967;-61
2022/01/11 03:19:02;;;;;;;63.52;25.40;;;;;;;-6.56;100.00;100331.09;2134944;83;21127;-61
2022/01/11 03:22:04;;;;;;;65.73;26.30;;;;;;;-6.73;100.00;100338.62;2154912;83;21049;-60
2022/01/11 03:25:05;;;;;;;65.17;25.75;;;;;;;-6.77;100.00;100344.43;2134513;83;20996;-61
2022/01/11 03:28:07;;;;;;;61.85;24.27;;;;;;;-6.82;100.00;100347.69;2155035;83;21530;-61
2022/01/11 03:31:08;;;;;;;65.87;24.98;;;;;;;-6.77;100.00;100349.11;2134973;83;20987;-61
2022/01/11 03:34:12;;;;;;;66.27;26.37;;;;;;;-6.75;100.00;100355.16;2154999;83;21531;-61
2022/01/11 03:37:16;;;;;;;65.90;24.65;;;;;;;-6.81;100.00;100352.37;2134912;83;21133;-61
2022/01/11 03:40:16;;;;;;;66.22;26.45;;;;;;;-6.90;100.00;100357.19;2128263;83;21019;-60
2022/01/11 03:43:21;;;;;;;61.58;25.20;;;;;;;-6.96;100.00;100349.77;2132273;83;21008;-61
2022/01/11 03:46:21;;;;;;;66.75;25.05;;;;;;;-6.96;100.00;100357.42;2119893;83;21030;-61
2022/01/11 03:49:23;;;;;;;66.42;25.92;;;;;;;-6.91;100.00;100354.16;2131850;84;21000;-61
2022/01/11 03:52:25;;;;;;;59.25;22.32;;;;;;;-6.83;100.00;100354.88;2148286;83;20975;-61
2022/01/11 03:58:30;;;;;;;61.13;24.75;;;;;;;-6.29;100.00;100360.89;2119964;83;21014;-60
2022/01/11 04:01:31;;;;;;;70.37;26.55;;;;;;;-6.27;100.00;100372.02;2131676;84;21603;-61
2022/01/11 04:04:33;;;;;;;50.80;21.00;;;;;;;-6.61;100.00;100369.63;2148200;83;20982;-61
2022/01/11 04:07:34;;;;;;;63.08;25.52;;;;;;;-7.01;100.00;100371.72;2131571;84;21587;-60
2022/01/11 04:10:36;;;;;;;68.47;26.00;;;;;;;-7.25;100.00;100372.14;2148012;83;20987;-61
2022/01/11 04:13:38;;;;;;;60.88;23.55;;;;;;;-7.38;100.00;100368.28;2131299;84;21008;-60
2022/01/11 04:16:40;;;;;;;66.00;27.32;;;;;;;-7.41;100.00;100370.69;2148056;83;20959;-61
2022/01/11 04:19:41;;;;;;;64.55;26.87;;;;;;;-7.38;100.00;100374.23;2131510;84;21511;-61
2022/01/11 04:22:42;;;;;;;69.35;25.97;;;;;;;-7.34;100.00;100382.46;2148253;83;20967;-61
2022/01/11 04:25:44;;;;;;;68.60;27.48;;;;;;;-7.35;100.00;100381.13;2131242;83;21523;-60
2022/01/11 04:28:46;;;;;;;68.85;27.27;;;;;;;-7.42;100.00;100386.41;2147999;83;20967;-60
2022/01/11 04:31:48;;;;;;;72.47;27.82;;;;;;;-7.44;100.00;100387.16;2131788;84;21510;-61
2022/01/11 04:34:49;;;;;;;63.93;25.13;;;;;;;-7.40;100.00;100384.77;2148180;83;21077;-60
2022/01/11 04:37:51;;;;;;;70.45;28.55;;;;;;;-7.41;100.00;100384.72;2131392;84;21476;-60
2022/01/11 04:40:53;;;;;;;71.97;28.37;;;;;;;-7.41;100.00;100388.16;2148273;82;20983;-60
2022/01/11 04:43:54;;;;;;;80.95;30.52;;;;;;;-7.26;100.00;100387.83;2131323;83;21540;-60
2022/01/11 04:46:56;;;;;;;75.13;30.00;;;;;;;-7.23;100.00;100392.17;2148324;83;20974;-60
2022/01/11 04:49:57;;;;;;;73.40;29.07;;;;;;;-7.30;100.00;100393.63;2131542;84;20999;-60
2022/01/11 04:52:59;;;;;;;56.93;22.03;;;;;;;-7.40;100.00;100392.83;2148410;83;21049;-59
2022/01/11 04:56:00;;;;;;;72.32;29.52;;;;;;;-7.46;100.00;100395.17;2131265;84;20996;-60
2022/01/11 04:59:01;;;;;;;65.85;24.85;;;;;;;-7.54;100.00;100401.23;2148084;83;21380;-60
2022/01/11 05:02:03;;;;;;;77.35;31.73;;;;;;;-7.55;100.00;100407.17;2131414;84;21048;-61
2022/01/11 05:05:04;;;;;;;59.97;25.27;;;;;;;-7.56;100.00;100414.34;2148435;83;21510;-61
2022/01/11 05:08:06;;;;;;;76.43;29.57;;;;;;;-7.59;100.00;100415.51;2131623;84;20988;-61
2022/01/11 05:11:07;;;;;;;62.60;25.62;;;;;;;-7.53;100.00;100418.28;2148000;83;21026;-61
2022/01/11 05:14:09;;;;;;;59.93;24.77;;;;;;;-7.49;100.00;100415.03;2131773;84;20995;-61
2022/01/11 05:17:11;;;;;;;70.72;28.02;;;;;;;-7.53;100.00;100414.45;2147954;83;20987;-61
2022/01/11 05:20:12;;;;;;;69.82;27.07;;;;;;;-7.56;100.00;100419.02;2131494;84;21001;-62
2022/01/11 05:23:14;;;;;;;64.92;26.27;;;;;;;-7.61;100.00;100423.09;2147988;83;20964;-60
2022/01/11 05:26:16;;;;;;;82.55;31.37;;;;;;;-7.54;100.00;100423.80;2131178;84;21035;-61
2022/01/11 05:29:18;;;;;;;67.40;25.97;;;;;;;-7.59;100.00;100424.42;2148218;83;21012;-60
